createdAt,value
2017-10-11T00:00:52.287Z,22.62
2017-10-11T00:03:03.260Z,22.62
2017-10-11T00:05:09.638Z,22.49
2017-10-11T00:07:17.315Z,22.33
2017-10-11T00:09:22.811Z,22.62
2017-10-11T00:11:29.534Z,22.51
2017-10-11T00:13:34.272Z,22.65
2017-10-11T00:15:39.358Z,22.31
2017-10-11T00:17:46.552Z,22.16
2017-10-11T00:19:53.633Z,22.12
2017-10-11T00:21:59.447Z,22.16
2017-10-11T00:24:03.729Z,22.34
2017-10-11T00:26:10.428Z,22.26
2017-10-11T00:28:16.599Z,22.37
2017-10-11T00:30:21.953Z,22.36
2017-10-11T00:32:28.112Z,22.60
2017-10-11T00:34:33.164Z,22.39
2017-10-11T00:36:43.864Z,22.53
2017-10-11T00:38:48.689Z,22.50
2017-10-11T00:40:53.535Z,22.60
2017-10-11T00:42:58.147Z,22.76
2017-10-11T00:45:02.421Z,22.28
2017-10-11T00:47:07.848Z,22.55
2017-10-11T00:49:16.674Z,22.59
2017-10-11T00:51:22.783Z,22.40
2017-10-11T00:53:28.937Z,22.42
2017-10-11T00:55:33.528Z,22.77
2017-10-11T00:57:38.243Z,22.65
2017-10-11T00:59:45.399Z,22.34
2017-10-11T01:01:49.756Z,22.64
2017-10-11T01:03:54.200Z,23.05
2017-10-11T01:05:59.336Z,23.20
2017-10-11T01:08:03.976Z,22.63
2017-10-11T01:10:09.910Z,22.41
2017-10-11T01:12:16.842Z,22.64
2017-10-11T01:14:20.913Z,22.43
2017-10-11T01:16:26.910Z,22.74
2017-10-11T01:18:32.750Z,22.52
2017-10-11T01:20:42.856Z,22.50
2017-10-11T01:22:47.152Z,22.46
2017-10-11T01:24:53.914Z,22.20
2017-10-11T01:27:00.021Z,22.22
2017-10-11T01:29:05.291Z,22.18
2017-10-11T01:31:11.274Z,22.18
2017-10-11T01:33:16.062Z,22.17
2017-10-11T01:35:20.682Z,22.09
2017-10-11T01:37:26.105Z,22.26
2017-10-11T01:39:30.649Z,22.61
2017-10-11T01:41:35.158Z,22.24
2017-10-11T01:43:39.693Z,22.28
2017-10-11T01:45:46.141Z,22.12
2017-10-11T01:47:50.629Z,22.09
2017-10-11T01:49:56.052Z,22.24
2017-10-11T01:52:00.623Z,22.10
2017-10-11T01:54:05.061Z,22.15
2017-10-11T01:56:10.340Z,22.25
2017-10-11T01:58:15.221Z,22.15
2017-10-11T02:00:22.061Z,22.38
2017-10-11T02:02:28.997Z,22.45
2017-10-11T02:04:35.120Z,22.38
2017-10-11T02:06:39.337Z,22.05
2017-10-11T02:08:45.927Z,22.13
2017-10-11T02:10:52.698Z,22.00
2017-10-11T02:12:57.259Z,21.97
2017-10-11T02:15:02.284Z,21.97
2017-10-11T02:17:06.952Z,21.91
2017-10-11T02:19:14.787Z,21.97
2017-10-11T02:21:21.817Z,22.00
2017-10-11T02:23:26.243Z,22.12
2017-10-11T02:25:33.205Z,21.88
2017-10-11T02:27:37.752Z,21.91
2017-10-11T02:29:46.396Z,21.68
2017-10-11T02:31:51.062Z,21.82
2017-10-11T02:33:55.739Z,21.77
2017-10-11T02:36:00.859Z,21.98
2017-10-11T02:38:20.988Z,21.88
2017-10-11T02:40:27.352Z,21.72
2017-10-11T02:42:31.840Z,21.66
2017-10-11T02:44:36.368Z,21.79
2017-10-11T02:46:45.106Z,21.92
2017-10-11T02:48:50.035Z,22.07
2017-10-11T02:50:56.375Z,22.09
2017-10-11T02:53:03.618Z,21.96
2017-10-11T02:55:11.761Z,21.93
2017-10-11T02:57:18.165Z,22.04
2017-10-11T02:59:25.390Z,21.97
2017-10-11T03:01:35.354Z,22.01
2017-10-11T03:05:50.975Z,21.90
2017-10-11T03:07:56.231Z,22.00
2017-10-11T03:10:01.271Z,22.02
2017-10-11T03:12:06.043Z,22.07
2017-10-11T03:14:18.673Z,21.93
2017-10-11T03:16:39.244Z,22.08
2017-10-11T03:18:47.312Z,22.08
2017-10-11T03:20:52.501Z,22.04
2017-10-11T03:22:57.106Z,22.09
2017-10-11T03:25:03.789Z,21.86
2017-10-11T03:27:08.265Z,21.86
2017-10-11T03:29:15.443Z,21.99
2017-10-11T03:31:25.811Z,22.11
2017-10-11T03:33:30.024Z,22.19
2017-10-11T03:35:35.040Z,22.14
2017-10-11T03:37:44.526Z,21.92
2017-10-11T03:39:49.666Z,22.00
2017-10-11T03:41:53.943Z,21.96
2017-10-11T03:44:02.427Z,22.07
2017-10-11T03:46:06.756Z,22.14
2017-10-11T03:48:10.906Z,22.16
2017-10-11T03:50:17.687Z,22.02
2017-10-11T03:52:23.919Z,22.03
2017-10-11T03:54:32.108Z,22.13
2017-10-11T03:56:38.599Z,22.06
2017-10-11T03:58:47.651Z,22.17
2017-10-11T04:00:52.487Z,22.07
2017-10-11T04:02:57.218Z,21.94
2017-10-11T04:05:02.223Z,21.79
2017-10-11T04:07:07.154Z,21.90
2017-10-11T04:09:12.111Z,21.91
2017-10-11T04:11:16.338Z,21.81
2017-10-11T04:13:22.516Z,21.75
2017-10-11T04:15:28.603Z,21.97
2017-10-11T04:17:33.616Z,22.00
2017-10-11T04:19:38.012Z,21.88
2017-10-11T04:21:47.295Z,22.01
2017-10-11T04:23:51.544Z,21.97
2017-10-11T04:26:02.238Z,22.05
2017-10-11T04:28:13.293Z,21.99
2017-10-11T04:30:19.468Z,21.81
2017-10-11T04:32:27.372Z,21.87
2017-10-11T04:34:34.208Z,21.98
2017-10-11T04:36:50.210Z,22.04
2017-10-11T04:39:06.678Z,22.02
2017-10-11T04:41:22.358Z,22.03
2017-10-11T04:43:30.193Z,21.98
2017-10-11T04:45:36.054Z,22.06
2017-10-11T04:49:53.833Z,21.95
2017-10-11T04:51:59.656Z,21.76
2017-10-11T04:54:06.569Z,21.99
2017-10-11T04:56:14.638Z,22.04
2017-10-11T04:58:20.323Z,22.07
2017-10-11T05:00:29.072Z,22.02
2017-10-11T05:02:34.257Z,21.85
2017-10-11T05:04:45.798Z,21.96
2017-10-11T05:06:50.542Z,21.97
2017-10-11T05:08:56.820Z,22.14
2017-10-11T05:11:02.718Z,22.14
2017-10-11T05:13:14.784Z,22.07
2017-10-11T05:15:26.889Z,21.98
2017-10-11T05:17:32.171Z,22.05
2017-10-11T05:19:37.856Z,22.05
2017-10-11T05:21:51.347Z,22.12
2017-10-11T05:23:59.571Z,22.17
2017-10-11T05:26:04.120Z,22.18
2017-10-11T05:28:12.456Z,22.08
2017-10-11T05:30:21.417Z,22.14
2017-10-11T05:32:31.668Z,22.23
2017-10-11T05:34:37.359Z,22.19
2017-10-11T05:36:48.755Z,22.20
2017-10-11T05:38:57.111Z,22.09
2017-10-11T05:41:14.678Z,22.07
2017-10-11T05:43:23.064Z,22.19
2017-10-11T05:45:37.767Z,22.22
2017-10-11T05:48:15.509Z,22.17
2017-10-11T05:50:22.988Z,22.23
2017-10-11T05:52:33.680Z,22.25
2017-10-11T05:54:45.209Z,22.32
2017-10-11T05:56:51.216Z,22.29
2017-10-11T05:58:57.525Z,22.20
2017-10-11T06:01:05.998Z,22.20
2017-10-11T06:03:25.717Z,22.25
2017-10-11T06:05:31.513Z,22.33
2017-10-11T06:07:38.927Z,22.17
2017-10-11T06:09:47.011Z,22.20
2017-10-11T06:12:00.866Z,22.26
2017-10-11T06:14:14.252Z,22.37
2017-10-11T06:16:25.746Z,21.99
2017-10-11T06:18:37.489Z,21.66
2017-10-11T06:23:02.715Z,21.85
2017-10-11T06:25:09.360Z,21.79
2017-10-11T06:27:20.404Z,21.60
2017-10-11T06:29:46.806Z,21.70
2017-10-11T06:31:59.560Z,21.73
2017-10-11T06:40:06.067Z,21.87
2017-10-11T06:42:11.592Z,21.85
2017-10-11T06:44:19.684Z,21.59
2017-10-11T06:46:34.134Z,21.71
2017-10-11T06:48:44.127Z,21.40
2017-10-11T06:50:48.435Z,21.54
2017-10-11T06:52:58.198Z,21.65
2017-10-11T06:55:12.793Z,21.58
2017-10-11T06:57:27.879Z,21.54
2017-10-11T06:59:39.415Z,21.79
2017-10-11T07:01:47.913Z,22.01
2017-10-11T07:03:57.084Z,21.86
2017-10-11T07:06:06.469Z,21.73
2017-10-11T07:08:14.470Z,21.54
2017-10-11T07:10:27.895Z,21.61
2017-10-11T07:12:32.879Z,21.55
2017-10-11T07:14:43.476Z,21.74
2017-10-11T07:16:55.304Z,21.86
2017-10-11T07:19:00.667Z,21.67
2017-10-11T07:21:17.382Z,21.84
2017-10-11T07:23:28.288Z,21.74
2017-10-11T07:25:34.906Z,21.61
2017-10-11T07:27:50.929Z,21.22
2017-10-11T07:30:00.618Z,21.28
2017-10-11T07:32:22.639Z,21.43
2017-10-11T07:34:27.018Z,21.28
2017-10-11T07:36:35.327Z,21.13
2017-10-11T07:38:46.462Z,21.17
2017-10-11T07:40:52.259Z,21.20
2017-10-11T07:43:05.257Z,21.16
2017-10-11T07:45:23.321Z,21.17
2017-10-11T07:48:12.031Z,21.18
2017-10-11T07:50:31.402Z,21.21
2017-10-11T07:52:38.305Z,21.19
2017-10-11T08:02:02.619Z,21.34
2017-10-11T08:04:15.562Z,21.26
2017-10-11T08:06:24.811Z,21.10
2017-10-11T08:08:32.326Z,21.11
2017-10-11T08:10:56.607Z,21.13
2017-10-11T08:15:33.085Z,21.16
2017-10-11T08:17:38.314Z,21.10
2017-10-11T08:19:45.293Z,21.14
2017-10-11T08:21:50.352Z,21.19
2017-10-11T08:23:57.203Z,21.14
2017-10-11T08:26:03.839Z,21.21
2017-10-11T08:28:10.247Z,21.38
2017-10-11T08:30:15.246Z,21.48
2017-10-11T08:32:20.845Z,21.45
2017-10-11T08:34:25.427Z,21.49
2017-10-11T08:36:30.510Z,21.11
2017-10-11T08:38:35.401Z,21.15
2017-10-11T08:40:43.559Z,21.32
2017-10-11T08:42:49.797Z,21.38
2017-10-11T08:44:55.182Z,21.31
2017-10-11T08:46:59.727Z,21.16
2017-10-11T08:49:04.776Z,21.41
2017-10-11T08:51:10.491Z,21.39
2017-10-11T08:53:16.727Z,21.56
2017-10-11T08:55:22.510Z,21.68
2017-10-11T08:57:27.274Z,21.40
2017-10-11T08:59:32.745Z,21.35
2017-10-11T09:01:50.146Z,21.25
2017-10-11T09:04:00.522Z,21.29
2017-10-11T09:06:16.933Z,21.54
2017-10-11T09:11:02.953Z,21.60
2017-10-11T09:13:12.681Z,21.65
2017-10-11T09:15:44.548Z,21.68
2017-10-11T09:21:21.861Z,21.65
2017-10-11T09:23:35.892Z,21.44
2017-10-11T09:25:53.230Z,21.59
2017-10-11T09:30:59.830Z,21.51
2017-10-11T09:33:33.670Z,21.49
2017-10-11T09:35:47.003Z,21.50
2017-10-11T09:40:27.967Z,21.58
2017-10-11T09:42:46.264Z,21.64
2017-10-11T09:44:52.970Z,21.54
2017-10-11T09:47:10.706Z,21.63
2017-10-11T09:49:26.714Z,21.79
2017-10-11T09:51:45.042Z,21.85
2017-10-11T09:54:05.860Z,21.90
2017-10-11T09:56:15.401Z,21.84
2017-10-11T09:58:46.311Z,21.99
2017-10-11T10:00:57.701Z,22.04
2017-10-11T10:03:14.714Z,21.98
2017-10-11T10:07:56.776Z,22.11
2017-10-11T10:10:10.536Z,22.01
2017-10-11T10:14:56.187Z,22.19
2017-10-11T10:17:25.918Z,22.27
2017-10-11T10:19:35.516Z,22.27
2017-10-11T10:21:51.684Z,22.41
2017-10-11T10:25:51.257Z,22.35
2017-10-11T10:28:27.989Z,22.46
2017-10-11T10:30:55.218Z,22.46
2017-10-11T10:33:41.818Z,22.51
2017-10-11T10:36:03.778Z,22.48
2017-10-11T10:43:09.727Z,22.41
2017-10-11T10:45:21.698Z,22.42
2017-10-11T10:47:35.154Z,22.10
2017-10-11T10:49:44.916Z,22.36
2017-10-11T10:51:50.952Z,22.47
2017-10-11T10:53:58.237Z,22.44
2017-10-11T10:56:04.093Z,22.45
2017-10-11T10:58:08.913Z,22.23
2017-10-11T11:00:15.251Z,22.36
2017-10-11T11:02:21.322Z,22.34
2017-10-11T11:04:26.195Z,22.35
2017-10-11T11:06:33.908Z,22.09
2017-10-11T11:08:39.329Z,22.30
2017-10-11T11:10:47.591Z,22.32
2017-10-11T11:12:53.383Z,22.15
2017-10-11T11:14:57.988Z,22.01
2017-10-11T11:17:07.089Z,22.24
2017-10-11T11:19:11.983Z,22.17
2017-10-11T11:21:17.558Z,22.22
2017-10-11T11:23:23.895Z,21.82
2017-10-11T11:25:30.471Z,21.88
2017-10-11T11:27:35.730Z,21.79
2017-10-11T11:29:41.964Z,21.99
2017-10-11T11:31:49.421Z,21.91
2017-10-11T11:33:57.594Z,22.15
2017-10-11T11:36:05.697Z,22.13
2017-10-11T11:38:17.437Z,21.90
2017-10-11T11:40:23.974Z,21.90
2017-10-11T11:42:28.331Z,22.03
2017-10-11T11:44:34.529Z,22.06
2017-10-11T11:46:38.793Z,22.30
2017-10-11T11:48:43.402Z,22.27
2017-10-11T11:50:49.137Z,22.22
2017-10-11T11:52:54.252Z,22.10
2017-10-11T11:55:00.617Z,22.26
2017-10-11T11:57:10.776Z,22.38
2017-10-11T11:59:18.977Z,22.43
2017-10-11T12:01:26.613Z,22.52
2017-10-11T12:03:33.274Z,22.41
2017-10-11T12:05:37.877Z,22.54
2017-10-11T12:07:43.531Z,22.55
2017-10-11T12:09:50.124Z,22.61
2017-10-11T12:11:55.335Z,22.49
2017-10-11T12:14:05.602Z,22.46
2017-10-11T12:16:16.858Z,22.35
2017-10-11T12:18:25.638Z,22.36
2017-10-11T12:20:37.501Z,22.32
2017-10-11T12:22:43.850Z,22.30
2017-10-11T12:24:53.000Z,22.12
2017-10-11T12:27:00.264Z,22.22
2017-10-11T12:29:06.786Z,22.29
2017-10-11T12:31:13.137Z,22.42
2017-10-11T12:33:25.210Z,22.41
2017-10-11T12:35:41.377Z,22.56
2017-10-11T12:37:54.522Z,22.60
2017-10-11T12:40:04.258Z,22.30
2017-10-11T12:42:15.654Z,22.43
2017-10-11T12:44:25.768Z,22.47
2017-10-11T12:46:34.080Z,22.30
2017-10-11T12:48:43.805Z,22.42
2017-10-11T12:50:50.446Z,22.42
2017-10-11T12:52:56.139Z,22.33
2017-10-11T12:55:03.115Z,22.49
2017-10-11T12:57:09.000Z,22.44
2017-10-11T12:59:15.714Z,22.47
2017-10-11T13:01:22.452Z,22.49
2017-10-11T13:03:28.132Z,22.40
2017-10-11T13:05:36.444Z,22.47
2017-10-11T13:07:46.007Z,22.52
2017-10-11T13:09:53.713Z,22.60
2017-10-11T13:23:06.279Z,22.42
2017-10-11T13:25:11.874Z,22.58
2017-10-11T13:27:18.079Z,22.61
2017-10-11T13:33:05.435Z,22.75
2017-10-11T13:35:12.999Z,22.72
2017-10-11T13:37:21.299Z,22.75
2017-10-11T13:39:26.079Z,22.71
2017-10-11T13:41:32.110Z,22.62
2017-10-11T13:43:38.611Z,22.70
2017-10-11T13:45:45.872Z,22.75
2017-10-11T13:47:50.028Z,22.79
2017-10-11T13:49:54.622Z,22.71
2017-10-11T13:52:01.600Z,22.71
2017-10-11T13:54:06.871Z,22.73
2017-10-11T13:56:13.732Z,22.86
2017-10-11T13:58:20.866Z,22.99
2017-10-11T14:00:26.593Z,23.24
2017-10-11T14:02:32.784Z,23.46
2017-10-11T14:04:40.014Z,23.65
2017-10-11T14:06:46.333Z,23.84
2017-10-11T14:08:54.199Z,23.67
2017-10-11T14:11:04.482Z,23.59
2017-10-11T14:13:12.523Z,23.39
2017-10-11T14:15:17.918Z,23.04
2017-10-11T14:17:24.567Z,23.14
2017-10-11T14:19:31.763Z,23.04
2017-10-11T14:21:37.143Z,23.07
2017-10-11T14:23:45.835Z,23.03
2017-10-11T14:25:51.287Z,22.99
2017-10-11T14:27:56.334Z,23.09
2017-10-11T14:30:04.522Z,23.01
2017-10-11T14:32:10.673Z,23.19
2017-10-11T14:34:16.507Z,23.14
2017-10-11T14:36:22.701Z,23.01
2017-10-11T14:38:28.213Z,23.12
2017-10-11T14:40:36.750Z,22.99
2017-10-11T14:42:41.386Z,22.82
2017-10-11T14:44:51.736Z,22.68
2017-10-11T14:46:57.923Z,22.68
2017-10-11T14:49:09.956Z,22.63
2017-10-11T14:51:17.519Z,22.66
2017-10-11T14:53:26.361Z,22.41
2017-10-11T14:55:37.154Z,22.40
2017-10-11T14:57:46.382Z,22.61
2017-10-11T14:59:55.931Z,22.57
2017-10-11T15:02:10.039Z,22.51
2017-10-11T15:04:24.547Z,22.45
2017-10-11T15:06:37.426Z,22.37
2017-10-11T15:09:37.990Z,22.47
2017-10-11T15:11:47.806Z,22.62
2017-10-11T15:13:52.870Z,22.48
2017-10-11T15:15:58.359Z,22.50
2017-10-11T15:18:06.203Z,22.41
2017-10-11T15:20:13.685Z,22.60
2017-10-11T15:22:18.929Z,22.64
2017-10-11T15:24:31.245Z,22.52
2017-10-11T15:26:38.371Z,22.51
2017-10-11T15:28:43.993Z,22.54
2017-10-11T15:30:53.693Z,22.50
2017-10-11T15:33:03.325Z,22.48
2017-10-11T15:35:23.495Z,22.51
2017-10-11T15:37:31.939Z,22.36
2017-10-11T15:39:37.783Z,22.43
2017-10-11T15:41:45.933Z,22.35
2017-10-11T15:43:55.278Z,22.23
2017-10-11T15:46:06.590Z,22.30
2017-10-11T15:48:10.640Z,22.20
2017-10-11T15:50:15.747Z,22.22
2017-10-11T15:52:22.871Z,22.24
2017-10-11T15:54:28.854Z,22.25
2017-10-11T15:56:37.415Z,22.26
2017-10-11T15:58:41.951Z,22.17
2017-10-11T16:00:48.333Z,22.28
2017-10-11T16:05:03.206Z,22.25
2017-10-11T16:07:13.168Z,22.05
2017-10-11T16:09:26.287Z,22.17
2017-10-11T16:11:40.920Z,22.24
2017-10-11T16:13:47.742Z,22.27
2017-10-11T16:15:58.888Z,22.27
2017-10-11T16:18:15.417Z,22.28
2017-10-11T16:20:27.240Z,22.15
2017-10-11T16:22:32.843Z,22.04
2017-10-11T16:24:43.255Z,22.18
2017-10-11T16:26:50.495Z,22.11
2017-10-11T16:28:57.587Z,21.77
2017-10-11T16:31:06.523Z,21.86
2017-10-11T16:33:22.346Z,21.87
2017-10-11T16:38:13.530Z,21.73
2017-10-11T16:42:38.404Z,21.80
2017-10-11T16:44:46.289Z,21.85
2017-10-11T16:47:05.460Z,21.88
2017-10-11T16:52:09.521Z,21.77
2017-10-11T16:54:23.314Z,21.82
2017-10-11T16:56:33.247Z,21.88
2017-10-11T16:58:40.532Z,21.90
2017-10-11T17:00:48.119Z,21.67
2017-10-11T17:02:55.224Z,21.67
2017-10-11T17:05:00.676Z,21.79
2017-10-11T17:07:09.539Z,21.95
2017-10-11T17:11:43.148Z,21.99
2017-10-11T17:13:52.495Z,22.02
2017-10-11T17:15:58.782Z,22.00
2017-10-11T17:18:08.694Z,21.72
2017-10-11T17:20:26.745Z,21.95
2017-10-11T17:22:35.328Z,21.60
2017-10-11T17:24:41.592Z,21.75
2017-10-11T17:33:43.375Z,21.56
2017-10-11T17:35:52.368Z,21.66
2017-10-11T17:38:33.970Z,21.73
2017-10-11T17:41:29.988Z,21.89
2017-10-11T17:55:16.047Z,21.94
2017-10-11T17:57:20.707Z,21.82
2017-10-11T17:59:26.691Z,21.93
2017-10-11T18:01:33.635Z,21.79
2017-10-11T18:03:48.863Z,21.84
2017-10-11T18:05:57.768Z,21.94
2017-10-11T18:08:09.679Z,21.97
2017-10-11T18:10:19.258Z,22.02
2017-10-11T18:12:26.828Z,21.95
2017-10-11T18:14:43.266Z,21.87
2017-10-11T18:16:52.032Z,21.79
2017-10-11T18:18:58.541Z,21.60
2017-10-11T18:21:10.274Z,21.66
2017-10-11T18:25:38.113Z,21.84
2017-10-11T18:27:44.810Z,21.57
2017-10-11T18:29:51.945Z,21.81
2017-10-11T18:31:58.210Z,21.75
2017-10-11T18:34:06.822Z,21.67
2017-10-11T18:36:16.055Z,21.61
2017-10-11T18:38:26.861Z,21.49
2017-10-11T18:40:34.921Z,21.27
2017-10-11T18:42:42.368Z,21.49
2017-10-11T18:44:48.343Z,21.43
2017-10-11T18:47:01.912Z,21.38
2017-10-11T18:49:08.057Z,21.34
2017-10-11T18:51:28.490Z,21.38
2017-10-11T18:53:40.496Z,21.29
2017-10-11T18:58:43.447Z,21.51
2017-10-11T19:00:52.662Z,21.46
2017-10-11T19:03:07.689Z,21.61
2017-10-11T19:05:15.286Z,21.48
2017-10-11T19:07:26.121Z,21.49
2017-10-11T19:09:38.716Z,21.58
2017-10-11T19:11:55.673Z,21.65
2017-10-11T19:14:11.303Z,21.53
2017-10-11T19:16:29.531Z,21.55
2017-10-11T19:18:40.832Z,21.40
2017-10-11T19:20:51.367Z,21.24
2017-10-11T19:23:05.987Z,21.27
2017-10-11T19:25:16.321Z,21.11
2017-10-11T19:27:25.971Z,21.22
2017-10-11T19:29:33.666Z,21.31
2017-10-11T19:31:42.010Z,21.29
2017-10-11T19:33:48.496Z,21.29
2017-10-11T19:35:57.909Z,21.18
2017-10-11T19:38:06.241Z,21.32
2017-10-11T19:40:15.600Z,21.14
2017-10-11T19:42:35.595Z,21.27
2017-10-11T19:44:45.355Z,21.08
2017-10-11T19:46:52.319Z,21.09
2017-10-11T19:54:33.603Z,21.14
2017-10-11T20:08:55.979Z,21.35
2017-10-11T20:11:07.844Z,21.14
2017-10-11T20:16:29.467Z,21.36
2017-10-11T21:47:37.442Z,22.13
2017-10-11T21:49:49.413Z,22.16
2017-10-11T21:51:55.940Z,21.95
2017-10-11T21:54:03.129Z,21.82
2017-10-11T21:56:09.879Z,21.93
2017-10-11T21:58:17.036Z,21.83
2017-10-11T22:00:24.202Z,21.91
2017-10-11T22:02:32.860Z,22.13
2017-10-11T22:04:39.702Z,22.14
2017-10-11T22:06:44.248Z,22.16
2017-10-11T22:08:49.303Z,22.26
2017-10-11T22:10:58.127Z,22.21
2017-10-11T22:13:14.985Z,22.31
2017-10-11T22:15:22.886Z,22.44
2017-10-11T22:17:31.774Z,22.22
2017-10-11T22:20:08.579Z,22.17
2017-10-11T22:22:17.385Z,22.40
2017-10-11T22:24:26.904Z,22.44
2017-10-11T22:26:34.273Z,22.47
2017-10-11T22:28:38.781Z,22.41
2017-10-11T22:30:43.749Z,22.56
2017-10-11T22:32:50.347Z,22.47
2017-10-11T22:34:57.866Z,22.52
2017-10-11T22:37:06.097Z,22.40
2017-10-11T22:39:12.432Z,22.23
2017-10-11T22:41:21.015Z,21.81
2017-10-11T22:43:29.727Z,21.57
2017-10-11T22:45:37.265Z,21.40
2017-10-11T22:47:43.995Z,21.37
2017-10-11T22:49:50.832Z,21.32
2017-10-11T22:51:57.286Z,21.28
2017-10-11T22:54:05.318Z,21.42
2017-10-11T22:56:12.523Z,21.36
2017-10-11T22:58:19.386Z,21.45
2017-10-11T23:00:25.799Z,21.69
2017-10-11T23:02:30.792Z,21.54
2017-10-11T23:04:35.906Z,21.41
2017-10-11T23:06:41.960Z,21.39
2017-10-11T23:08:46.960Z,21.44
2017-10-11T23:10:52.643Z,21.35
2017-10-11T23:12:57.838Z,21.39
2017-10-11T23:15:07.611Z,21.25
2017-10-11T23:17:26.785Z,21.55
2017-10-11T23:19:34.219Z,21.68
2017-10-11T23:21:39.470Z,21.35
2017-10-11T23:23:47.291Z,21.55
2017-10-11T23:25:54.841Z,21.99
2017-10-11T23:28:16.733Z,21.89
2017-10-11T23:30:22.809Z,21.71
2017-10-11T23:32:27.565Z,22.07
2017-10-11T23:34:33.213Z,22.33
2017-10-11T23:36:38.953Z,22.31
2017-10-11T23:38:44.914Z,22.58
2017-10-11T23:40:50.832Z,22.56
2017-10-11T23:42:55.720Z,22.24
2017-10-11T23:45:03.323Z,22.06
2017-10-11T23:47:09.170Z,21.93
2017-10-11T23:49:17.366Z,22.13
2017-10-11T23:51:23.977Z,22.39
2017-10-11T23:53:31.410Z,22.12
2017-10-11T23:55:36.707Z,21.78
2017-10-11T23:57:42.002Z,21.85
2017-10-11T23:59:47.351Z,22.06
